SAWG/RGL METAR and TAF weather

Enter ICAO airport designator
Station Type Date Time Source
SAWG METAR 2021/08/01 17:00 UTC NOAA

SAWG 011700Z 29012KT CAVOK 11/03 Q1000


Station Type Date Time Source
SAWG Decoded METAR 2021/08/01 17:00 UTC NOAA

Rio Gallegos Aerodrome, Argentina (SAWG) 51-37S 069-17W 19M
Aug 01, 2021 - 01:00 PM EDT / 2021.08.01 1700 UTC
Wind: from the WNW (290 degrees) at 14 MPH (12 KT):0
Visibility: greater than 7 mile(s):0
Temperature: 51 F (11 C)
Dew Point: 37 F (3 C)
Relative Humidity: 57%
Pressure (altimeter): 29.53 in. Hg (1000 hPa)
ob: SAWG 011700Z 29012KT CAVOK 11/03 Q1000
cycle: 17

Station Type Date Time Source
SAWG TAF 2021/08/01 18:12 UTC NOAA

TAF SAWG 011700Z 0118/0218 29020KT 9999 SCT030 SCT040 TX12/0218Z TN01/0211Z
BECMG 0202/0204 VRB05KT
BECMG 0212/0214 30025KT

Example: see airport list